sensor_id;sensor_type;location;lat;lon;timestamp;P1;durP1;ratioP1;P2;durP2;ratioP2
4023;SDS011;2026;51.002;13.668;2023-02-16T00:00:03;30.83;;;16.17;;
4023;SDS011;2026;51.002;13.668;2023-02-16T00:05:11;32.97;;;15.57;;
4023;SDS011;2026;51.002;13.668;2023-02-16T00:10:26;30.23;;;14.30;;
4023;SDS011;2026;51.002;13.668;2023-02-16T00:15:34;29.57;;;14.60;;
4023;SDS011;2026;51.002;13.668;2023-02-16T00:20:37;33.10;;;15.33;;
4023;SDS011;2026;51.002;13.668;2023-02-16T00:25:40;31.50;;;14.83;;
4023;SDS011;2026;51.002;13.668;2023-02-16T00:30:44;29.23;;;14.10;;
4023;SDS011;2026;51.002;13.668;2023-02-16T00:35:48;30.20;;;15.83;;
4023;SDS011;2026;51.002;13.668;2023-02-16T00:40:51;34.23;;;16.43;;
4023;SDS011;2026;51.002;13.668;2023-02-16T00:45:55;33.27;;;15.40;;
4023;SDS011;2026;51.002;13.668;2023-02-16T00:50:59;36.80;;;17.70;;
4023;SDS011;2026;51.002;13.668;2023-02-16T00:56:02;35.23;;;16.33;;
4023;SDS011;2026;51.002;13.668;2023-02-16T01:01:07;31.70;;;15.40;;
4023;SDS011;2026;51.002;13.668;2023-02-16T01:06:14;31.73;;;16.67;;
4023;SDS011;2026;51.002;13.668;2023-02-16T01:11:35;43.20;;;20.00;;
4023;SDS011;2026;51.002;13.668;2023-02-16T01:16:40;36.20;;;17.30;;
4023;SDS011;2026;51.002;13.668;2023-02-16T01:21:43;39.40;;;17.73;;
4023;SDS011;2026;51.002;13.668;2023-02-16T01:26:48;38.70;;;18.87;;
4023;SDS011;2026;51.002;13.668;2023-02-16T01:31:54;37.60;;;17.53;;
4023;SDS011;2026;51.002;13.668;2023-02-16T01:36:57;34.80;;;17.70;;
4023;SDS011;2026;51.002;13.668;2023-02-16T01:47:35;38.60;;;17.80;;
4023;SDS011;2026;51.002;13.668;2023-02-16T01:52:43;40.80;;;18.27;;
4023;SDS011;2026;51.002;13.668;2023-02-16T01:57:49;43.77;;;17.47;;
4023;SDS011;2026;51.002;13.668;2023-02-16T02:02:59;38.73;;;15.87;;
4023;SDS011;2026;51.002;13.668;2023-02-16T02:08:20;37.30;;;18.30;;
4023;SDS011;2026;51.002;13.668;2023-02-16T02:13:30;34.70;;;17.10;;
4023;SDS011;2026;51.002;13.668;2023-02-16T02:18:38;36.90;;;18.63;;
4023;SDS011;2026;51.002;13.668;2023-02-16T02:23:48;32.60;;;16.50;;
4023;SDS011;2026;51.002;13.668;2023-02-16T02:29:27;39.50;;;18.90;;
4023;SDS011;2026;51.002;13.668;2023-02-16T02:34:58;34.10;;;16.40;;
4023;SDS011;2026;51.002;13.668;2023-02-16T02:40:07;39.83;;;18.07;;
4023;SDS011;2026;51.002;13.668;2023-02-16T02:45:21;37.03;;;18.20;;
4023;SDS011;2026;51.002;13.668;2023-02-16T02:50:39;34.13;;;17.37;;
4023;SDS011;2026;51.002;13.668;2023-02-16T02:56:09;35.23;;;17.17;;
4023;SDS011;2026;51.002;13.668;2023-02-16T03:01:34;30.43;;;15.73;;
4023;SDS011;2026;51.002;13.668;2023-02-16T03:06:42;35.73;;;17.67;;
4023;SDS011;2026;51.002;13.668;2023-02-16T03:11:49;39.60;;;17.70;;
4023;SDS011;2026;51.002;13.668;2023-02-16T03:17:14;35.40;;;17.63;;
4023;SDS011;2026;51.002;13.668;2023-02-16T03:22:37;32.10;;;16.07;;
4023;SDS011;2026;51.002;13.668;2023-02-16T03:27:57;35.63;;;18.10;;
4023;SDS011;2026;51.002;13.668;2023-02-16T03:33:21;35.37;;;16.87;;
4023;SDS011;2026;51.002;13.668;2023-02-16T03:38:26;29.87;;;15.10;;
4023;SDS011;2026;51.002;13.668;2023-02-16T03:43:29;32.33;;;15.53;;
4023;SDS011;2026;51.002;13.668;2023-02-16T03:53:38;36.87;;;16.80;;
4023;SDS011;2026;51.002;13.668;2023-02-16T03:58:41;34.60;;;15.20;;
4023;SDS011;2026;51.002;13.668;2023-02-16T04:03:45;32.67;;;16.40;;
4023;SDS011;2026;51.002;13.668;2023-02-16T04:08:48;39.37;;;17.80;;
4023;SDS011;2026;51.002;13.668;2023-02-16T04:13:52;39.07;;;16.83;;
4023;SDS011;2026;51.002;13.668;2023-02-16T04:18:56;39.07;;;16.70;;
4023;SDS011;2026;51.002;13.668;2023-02-16T04:23:59;37.97;;;16.67;;
4023;SDS011;2026;51.002;13.668;2023-02-16T04:29:02;36.13;;;16.33;;
4023;SDS011;2026;51.002;13.668;2023-02-16T04:34:07;37.10;;;16.53;;
4023;SDS011;2026;51.002;13.668;2023-02-16T04:39:10;33.17;;;17.87;;
4023;SDS011;2026;51.002;13.668;2023-02-16T04:44:13;31.87;;;15.67;;
4023;SDS011;2026;51.002;13.668;2023-02-16T04:49:17;39.40;;;17.43;;
4023;SDS011;2026;51.002;13.668;2023-02-16T04:54:20;36.97;;;17.60;;
4023;SDS011;2026;51.002;13.668;2023-02-16T04:59:24;34.83;;;16.63;;
4023;SDS011;2026;51.002;13.668;2023-02-16T05:04:28;45.13;;;18.63;;
4023;SDS011;2026;51.002;13.668;2023-02-16T05:09:32;42.53;;;19.40;;
4023;SDS011;2026;51.002;13.668;2023-02-16T05:14:35;41.93;;;18.33;;
4023;SDS011;2026;51.002;13.668;2023-02-16T05:19:47;36.33;;;16.60;;
4023;SDS011;2026;51.002;13.668;2023-02-16T05:24:51;37.13;;;19.60;;
4023;SDS011;2026;51.002;13.668;2023-02-16T05:29:54;40.20;;;18.80;;
4023;SDS011;2026;51.002;13.668;2023-02-16T05:34:59;31.73;;;16.93;;
4023;SDS011;2026;51.002;13.668;2023-02-16T05:40:02;33.00;;;16.77;;
4023;SDS011;2026;51.002;13.668;2023-02-16T05:45:06;33.20;;;16.23;;
4023;SDS011;2026;51.002;13.668;2023-02-16T05:50:11;36.13;;;17.60;;
4023;SDS011;2026;51.002;13.668;2023-02-16T05:55:14;33.67;;;16.40;;
4023;SDS011;2026;51.002;13.668;2023-02-16T06:00:17;41.90;;;16.80;;
4023;SDS011;2026;51.002;13.668;2023-02-16T06:05:23;69.83;;;30.93;;
4023;SDS011;2026;51.002;13.668;2023-02-16T06:10:26;43.00;;;15.87;;
4023;SDS011;2026;51.002;13.668;2023-02-16T06:15:29;34.93;;;16.27;;
4023;SDS011;2026;51.002;13.668;2023-02-16T06:20:33;30.40;;;14.30;;
4023;SDS011;2026;51.002;13.668;2023-02-16T06:25:36;30.13;;;14.47;;
4023;SDS011;2026;51.002;13.668;2023-02-16T06:30:39;30.50;;;14.97;;
4023;SDS011;2026;51.002;13.668;2023-02-16T06:35:44;26.57;;;14.93;;
4023;SDS011;2026;51.002;13.668;2023-02-16T06:40:50;28.33;;;13.83;;
4023;SDS011;2026;51.002;13.668;2023-02-16T06:45:53;30.40;;;14.13;;
4023;SDS011;2026;51.002;13.668;2023-02-16T06:50:57;31.50;;;15.57;;
4023;SDS011;2026;51.002;13.668;2023-02-16T06:56:00;28.77;;;14.70;;
4023;SDS011;2026;51.002;13.668;2023-02-16T07:01:03;37.37;;;16.93;;
4023;SDS011;2026;51.002;13.668;2023-02-16T07:06:08;34.53;;;16.20;;
4023;SDS011;2026;51.002;13.668;2023-02-16T07:11:11;38.40;;;17.00;;
4023;SDS011;2026;51.002;13.668;2023-02-16T07:16:16;35.10;;;16.73;;
4023;SDS011;2026;51.002;13.668;2023-02-16T07:21:20;30.50;;;15.90;;
4023;SDS011;2026;51.002;13.668;2023-02-16T07:26:23;32.50;;;16.63;;
4023;SDS011;2026;51.002;13.668;2023-02-16T07:31:26;33.20;;;15.80;;
4023;SDS011;2026;51.002;13.668;2023-02-16T07:36:31;35.30;;;17.97;;
4023;SDS011;2026;51.002;13.668;2023-02-16T07:41:34;40.80;;;18.20;;
4023;SDS011;2026;51.002;13.668;2023-02-16T07:46:41;40.60;;;19.03;;
4023;SDS011;2026;51.002;13.668;2023-02-16T07:51:45;36.03;;;18.17;;
4023;SDS011;2026;51.002;13.668;2023-02-16T07:56:48;33.33;;;17.10;;
4023;SDS011;2026;51.002;13.668;2023-02-16T08:01:51;32.30;;;18.17;;
4023;SDS011;2026;51.002;13.668;2023-02-16T08:06:55;35.80;;;19.00;;
4023;SDS011;2026;51.002;13.668;2023-02-16T08:11:58;37.00;;;18.80;;
4023;SDS011;2026;51.002;13.668;2023-02-16T08:17:01;35.53;;;18.60;;
4023;SDS011;2026;51.002;13.668;2023-02-16T08:22:06;46.67;;;20.70;;
4023;SDS011;2026;51.002;13.668;2023-02-16T08:27:10;35.43;;;19.57;;
4023;SDS011;2026;51.002;13.668;2023-02-16T08:32:13;67.03;;;33.00;;
4023;SDS011;2026;51.002;13.668;2023-02-16T08:37:17;47.07;;;24.27;;
4023;SDS011;2026;51.002;13.668;2023-02-16T08:42:20;63.50;;;29.03;;
4023;SDS011;2026;51.002;13.668;2023-02-16T08:47:23;53.23;;;24.50;;
4023;SDS011;2026;51.002;13.668;2023-02-16T08:52:27;54.50;;;25.07;;
4023;SDS011;2026;51.002;13.668;2023-02-16T08:57:32;65.73;;;29.83;;
4023;SDS011;2026;51.002;13.668;2023-02-16T09:02:35;48.33;;;24.67;;
4023;SDS011;2026;51.002;13.668;2023-02-16T09:07:39;39.47;;;21.17;;
4023;SDS011;2026;51.002;13.668;2023-02-16T09:12:42;38.37;;;19.43;;
4023;SDS011;2026;51.002;13.668;2023-02-16T09:17:48;41.73;;;19.93;;
4023;SDS011;2026;51.002;13.668;2023-02-16T09:22:53;44.20;;;24.30;;
4023;SDS011;2026;51.002;13.668;2023-02-16T09:27:56;46.37;;;21.97;;
4023;SDS011;2026;51.002;13.668;2023-02-16T09:32:59;42.10;;;22.73;;
4023;SDS011;2026;51.002;13.668;2023-02-16T09:38:03;33.70;;;19.30;;
4023;SDS011;2026;51.002;13.668;2023-02-16T09:43:11;41.67;;;19.10;;
4023;SDS011;2026;51.002;13.668;2023-02-16T09:48:28;31.60;;;16.90;;
4023;SDS011;2026;51.002;13.668;2023-02-16T09:53:39;30.60;;;16.47;;
4023;SDS011;2026;51.002;13.668;2023-02-16T09:58:47;38.70;;;17.30;;
4023;SDS011;2026;51.002;13.668;2023-02-16T10:03:59;32.87;;;17.20;;
4023;SDS011;2026;51.002;13.668;2023-02-16T10:09:14;27.50;;;15.40;;
4023;SDS011;2026;51.002;13.668;2023-02-16T10:14:24;33.70;;;16.43;;
4023;SDS011;2026;51.002;13.668;2023-02-16T10:19:34;35.70;;;19.40;;
4023;SDS011;2026;51.002;13.668;2023-02-16T10:24:43;31.63;;;18.57;;
4023;SDS011;2026;51.002;13.668;2023-02-16T10:29:54;35.20;;;17.57;;
4023;SDS011;2026;51.002;13.668;2023-02-16T10:34:59;22.17;;;12.67;;
4023;SDS011;2026;51.002;13.668;2023-02-16T10:40:23;23.80;;;12.07;;
4023;SDS011;2026;51.002;13.668;2023-02-16T10:45:34;24.30;;;12.97;;
4023;SDS011;2026;51.002;13.668;2023-02-16T10:50:42;22.13;;;12.60;;
4023;SDS011;2026;51.002;13.668;2023-02-16T10:55:52;22.53;;;12.23;;
4023;SDS011;2026;51.002;13.668;2023-02-16T11:00:57;19.23;;;11.20;;
4023;SDS011;2026;51.002;13.668;2023-02-16T11:06:11;21.67;;;12.10;;
4023;SDS011;2026;51.002;13.668;2023-02-16T11:11:17;20.13;;;12.03;;
4023;SDS011;2026;51.002;13.668;2023-02-16T11:16:23;24.40;;;12.30;;
4023;SDS011;2026;51.002;13.668;2023-02-16T11:21:42;26.97;;;13.20;;
4023;SDS011;2026;51.002;13.668;2023-02-16T11:26:50;22.50;;;13.00;;
4023;SDS011;2026;51.002;13.668;2023-02-16T11:32:04;22.43;;;13.30;;
4023;SDS011;2026;51.002;13.668;2023-02-16T11:37:12;23.70;;;13.50;;
4023;SDS011;2026;51.002;13.668;2023-02-16T11:42:21;24.80;;;13.70;;
4023;SDS011;2026;51.002;13.668;2023-02-16T11:47:30;22.33;;;13.30;;
4023;SDS011;2026;51.002;13.668;2023-02-16T11:52:35;24.10;;;14.17;;
4023;SDS011;2026;51.002;13.668;2023-02-16T11:57:40;23.37;;;13.40;;
4023;SDS011;2026;51.002;13.668;2023-02-16T12:13:42;22.93;;;12.67;;
4023;SDS011;2026;51.002;13.668;2023-02-16T12:19:00;25.30;;;14.10;;
4023;SDS011;2026;51.002;13.668;2023-02-16T12:24:13;21.13;;;13.00;;
4023;SDS011;2026;51.002;13.668;2023-02-16T12:29:35;23.27;;;13.50;;
4023;SDS011;2026;51.002;13.668;2023-02-16T12:34:45;23.30;;;13.57;;
4023;SDS011;2026;51.002;13.668;2023-02-16T12:40:02;25.27;;;14.13;;
4023;SDS011;2026;51.002;13.668;2023-02-16T12:45:20;20.30;;;13.73;;
4023;SDS011;2026;51.002;13.668;2023-02-16T12:50:25;26.00;;;14.00;;
4023;SDS011;2026;51.002;13.668;2023-02-16T12:55:31;21.97;;;13.00;;
4023;SDS011;2026;51.002;13.668;2023-02-16T13:00:41;25.33;;;13.87;;
4023;SDS011;2026;51.002;13.668;2023-02-16T13:05:50;20.73;;;13.20;;
4023;SDS011;2026;51.002;13.668;2023-02-16T13:11:02;21.63;;;12.93;;
4023;SDS011;2026;51.002;13.668;2023-02-16T13:16:12;25.60;;;13.90;;
4023;SDS011;2026;51.002;13.668;2023-02-16T13:21:37;22.73;;;12.40;;
4023;SDS011;2026;51.002;13.668;2023-02-16T13:26:55;22.83;;;11.60;;
4023;SDS011;2026;51.002;13.668;2023-02-16T13:32:16;21.03;;;12.53;;
4023;SDS011;2026;51.002;13.668;2023-02-16T13:37:49;24.83;;;12.53;;
4023;SDS011;2026;51.002;13.668;2023-02-16T13:43:10;20.73;;;12.10;;
4023;SDS011;2026;51.002;13.668;2023-02-16T13:48:21;22.77;;;11.73;;
4023;SDS011;2026;51.002;13.668;2023-02-16T13:53:29;18.50;;;10.63;;
4023;SDS011;2026;51.002;13.668;2023-02-16T13:58:37;18.90;;;11.20;;
4023;SDS011;2026;51.002;13.668;2023-02-16T14:03:43;22.00;;;11.60;;
4023;SDS011;2026;51.002;13.668;2023-02-16T14:08:49;19.77;;;11.23;;
4023;SDS011;2026;51.002;13.668;2023-02-16T14:14:31;18.73;;;11.10;;
4023;SDS011;2026;51.002;13.668;2023-02-16T14:19:38;18.00;;;10.20;;
4023;SDS011;2026;51.002;13.668;2023-02-16T14:24:41;19.07;;;10.40;;
4023;SDS011;2026;51.002;13.668;2023-02-16T14:29:51;17.10;;;10.00;;
4023;SDS011;2026;51.002;13.668;2023-02-16T14:35:03;16.60;;;9.47;;
4023;SDS011;2026;51.002;13.668;2023-02-16T14:40:11;15.80;;;9.43;;
4023;SDS011;2026;51.002;13.668;2023-02-16T14:51:01;14.87;;;9.90;;
4023;SDS011;2026;51.002;13.668;2023-02-16T15:01:44;16.87;;;10.30;;
4023;SDS011;2026;51.002;13.668;2023-02-16T15:06:48;20.10;;;10.37;;
4023;SDS011;2026;51.002;13.668;2023-02-16T15:11:52;17.40;;;10.23;;
4023;SDS011;2026;51.002;13.668;2023-02-16T15:17:17;21.37;;;10.70;;
4023;SDS011;2026;51.002;13.668;2023-02-16T15:22:28;18.10;;;11.90;;
4023;SDS011;2026;51.002;13.668;2023-02-16T15:27:32;18.27;;;10.37;;
4023;SDS011;2026;51.002;13.668;2023-02-16T15:32:35;19.90;;;12.00;;
4023;SDS011;2026;51.002;13.668;2023-02-16T15:37:40;17.53;;;10.37;;
4023;SDS011;2026;51.002;13.668;2023-02-16T15:42:43;16.77;;;10.37;;
4023;SDS011;2026;51.002;13.668;2023-02-16T15:47:46;18.50;;;10.30;;
4023;SDS011;2026;51.002;13.668;2023-02-16T15:52:51;18.97;;;10.23;;
4023;SDS011;2026;51.002;13.668;2023-02-16T15:57:55;18.67;;;11.20;;
4023;SDS011;2026;51.002;13.668;2023-02-16T16:02:59;20.70;;;11.30;;
4023;SDS011;2026;51.002;13.668;2023-02-16T16:08:04;34.60;;;20.33;;
4023;SDS011;2026;51.002;13.668;2023-02-16T16:13:14;32.93;;;19.00;;
4023;SDS011;2026;51.002;13.668;2023-02-16T16:18:37;20.07;;;13.47;;
4023;SDS011;2026;51.002;13.668;2023-02-16T16:23:56;17.70;;;10.50;;
4023;SDS011;2026;51.002;13.668;2023-02-16T16:29:01;19.97;;;12.23;;
4023;SDS011;2026;51.002;13.668;2023-02-16T16:34:05;20.07;;;11.10;;
4023;SDS011;2026;51.002;13.668;2023-02-16T16:39:21;27.93;;;17.23;;
4023;SDS011;2026;51.002;13.668;2023-02-16T16:44:29;20.43;;;12.30;;
4023;SDS011;2026;51.002;13.668;2023-02-16T16:49:35;19.50;;;10.30;;
4023;SDS011;2026;51.002;13.668;2023-02-16T16:54:39;18.73;;;10.10;;
4023;SDS011;2026;51.002;13.668;2023-02-16T16:59:43;20.20;;;11.83;;
4023;SDS011;2026;51.002;13.668;2023-02-16T17:04:47;25.10;;;14.43;;
4023;SDS011;2026;51.002;13.668;2023-02-16T17:09:52;23.27;;;11.70;;
4023;SDS011;2026;51.002;13.668;2023-02-16T17:14:56;21.40;;;11.07;;
4023;SDS011;2026;51.002;13.668;2023-02-16T17:20:00;20.63;;;12.37;;
4023;SDS011;2026;51.002;13.668;2023-02-16T17:25:05;21.17;;;10.83;;
4023;SDS011;2026;51.002;13.668;2023-02-16T17:30:09;20.13;;;10.13;;
4023;SDS011;2026;51.002;13.668;2023-02-16T17:35:13;16.80;;;11.50;;
4023;SDS011;2026;51.002;13.668;2023-02-16T17:40:19;21.90;;;12.40;;
4023;SDS011;2026;51.002;13.668;2023-02-16T17:45:23;16.50;;;10.63;;
4023;SDS011;2026;51.002;13.668;2023-02-16T17:50:26;19.87;;;11.80;;
4023;SDS011;2026;51.002;13.668;2023-02-16T17:55:32;17.87;;;10.17;;
4023;SDS011;2026;51.002;13.668;2023-02-16T18:00:36;18.90;;;12.40;;
4023;SDS011;2026;51.002;13.668;2023-02-16T18:05:39;15.63;;;10.00;;
4023;SDS011;2026;51.002;13.668;2023-02-16T18:10:44;17.50;;;10.63;;
4023;SDS011;2026;51.002;13.668;2023-02-16T18:15:48;17.27;;;9.60;;
4023;SDS011;2026;51.002;13.668;2023-02-16T18:20:51;15.33;;;9.47;;
4023;SDS011;2026;51.002;13.668;2023-02-16T18:25:56;12.87;;;8.10;;
4023;SDS011;2026;51.002;13.668;2023-02-16T18:30:59;12.00;;;8.10;;
4023;SDS011;2026;51.002;13.668;2023-02-16T18:36:03;11.53;;;7.40;;
4023;SDS011;2026;51.002;13.668;2023-02-16T18:41:08;15.97;;;8.43;;
4023;SDS011;2026;51.002;13.668;2023-02-16T18:46:11;15.77;;;9.10;;
4023;SDS011;2026;51.002;13.668;2023-02-16T18:51:14;17.70;;;10.70;;
4023;SDS011;2026;51.002;13.668;2023-02-16T18:56:20;25.37;;;14.10;;
4023;SDS011;2026;51.002;13.668;2023-02-16T19:01:26;16.70;;;11.03;;
4023;SDS011;2026;51.002;13.668;2023-02-16T19:06:31;13.43;;;8.27;;
4023;SDS011;2026;51.002;13.668;2023-02-16T19:11:35;13.40;;;8.10;;
4023;SDS011;2026;51.002;13.668;2023-02-16T19:16:39;18.57;;;9.67;;
4023;SDS011;2026;51.002;13.668;2023-02-16T19:21:42;14.03;;;9.37;;
4023;SDS011;2026;51.002;13.668;2023-02-16T19:26:47;16.60;;;10.10;;
4023;SDS011;2026;51.002;13.668;2023-02-16T19:31:50;21.73;;;9.40;;
4023;SDS011;2026;51.002;13.668;2023-02-16T19:36:53;16.10;;;10.67;;
4023;SDS011;2026;51.002;13.668;2023-02-16T19:41:57;17.70;;;11.20;;
4023;SDS011;2026;51.002;13.668;2023-02-16T19:47:01;19.60;;;11.03;;
4023;SDS011;2026;51.002;13.668;2023-02-16T19:52:04;23.03;;;11.80;;
4023;SDS011;2026;51.002;13.668;2023-02-16T19:57:08;18.80;;;12.10;;
4023;SDS011;2026;51.002;13.668;2023-02-16T20:02:11;20.20;;;13.00;;
4023;SDS011;2026;51.002;13.668;2023-02-16T20:07:15;24.90;;;13.00;;
4023;SDS011;2026;51.002;13.668;2023-02-16T20:12:20;23.63;;;13.53;;
4023;SDS011;2026;51.002;13.668;2023-02-16T20:17:23;52.67;;;18.43;;
4023;SDS011;2026;51.002;13.668;2023-02-16T20:22:26;23.73;;;14.43;;
4023;SDS011;2026;51.002;13.668;2023-02-16T20:27:30;23.93;;;13.67;;
4023;SDS011;2026;51.002;13.668;2023-02-16T20:32:33;22.53;;;13.30;;
4023;SDS011;2026;51.002;13.668;2023-02-16T20:37:36;25.50;;;13.97;;
4023;SDS011;2026;51.002;13.668;2023-02-16T20:42:41;22.10;;;14.13;;
4023;SDS011;2026;51.002;13.668;2023-02-16T20:47:44;24.50;;;14.83;;
4023;SDS011;2026;51.002;13.668;2023-02-16T20:52:47;25.03;;;14.17;;
4023;SDS011;2026;51.002;13.668;2023-02-16T20:57:51;21.40;;;13.10;;
4023;SDS011;2026;51.002;13.668;2023-02-16T21:02:54;22.40;;;13.40;;
4023;SDS011;2026;51.002;13.668;2023-02-16T21:07:57;24.00;;;13.70;;
4023;SDS011;2026;51.002;13.668;2023-02-16T21:13:01;18.53;;;12.63;;
4023;SDS011;2026;51.002;13.668;2023-02-16T21:18:04;21.10;;;13.07;;
4023;SDS011;2026;51.002;13.668;2023-02-16T21:23:07;34.30;;;19.77;;
4023;SDS011;2026;51.002;13.668;2023-02-16T21:28:12;23.43;;;13.90;;
4023;SDS011;2026;51.002;13.668;2023-02-16T21:33:15;23.73;;;13.57;;
4023;SDS011;2026;51.002;13.668;2023-02-16T21:38:18;20.53;;;12.93;;
4023;SDS011;2026;51.002;13.668;2023-02-16T21:43:22;24.77;;;12.70;;
4023;SDS011;2026;51.002;13.668;2023-02-16T21:48:25;25.30;;;13.80;;
4023;SDS011;2026;51.002;13.668;2023-02-16T21:53:45;20.70;;;12.37;;
4023;SDS011;2026;51.002;13.668;2023-02-16T21:58:50;22.07;;;13.07;;
4023;SDS011;2026;51.002;13.668;2023-02-16T22:03:53;20.77;;;12.43;;
4023;SDS011;2026;51.002;13.668;2023-02-16T22:08:59;25.73;;;13.17;;
4023;SDS011;2026;51.002;13.668;2023-02-16T22:14:03;20.30;;;12.77;;
4023;SDS011;2026;51.002;13.668;2023-02-16T22:19:07;20.53;;;11.80;;
4023;SDS011;2026;51.002;13.668;2023-02-16T22:24:13;16.27;;;11.20;;
4023;SDS011;2026;51.002;13.668;2023-02-16T22:29:19;18.67;;;11.03;;
4023;SDS011;2026;51.002;13.668;2023-02-16T22:34:22;19.70;;;10.83;;
4023;SDS011;2026;51.002;13.668;2023-02-16T22:39:24;17.47;;;10.90;;
4023;SDS011;2026;51.002;13.668;2023-02-16T22:44:29;18.10;;;10.87;;
4023;SDS011;2026;51.002;13.668;2023-02-16T22:49:32;17.23;;;10.50;;
4023;SDS011;2026;51.002;13.668;2023-02-16T22:54:35;18.93;;;10.77;;
4023;SDS011;2026;51.002;13.668;2023-02-16T22:59:39;21.40;;;11.03;;
4023;SDS011;2026;51.002;13.668;2023-02-16T23:04:42;18.30;;;10.90;;
4023;SDS011;2026;51.002;13.668;2023-02-16T23:09:45;21.03;;;12.20;;
4023;SDS011;2026;51.002;13.668;2023-02-16T23:14:49;15.40;;;10.70;;
4023;SDS011;2026;51.002;13.668;2023-02-16T23:19:52;15.73;;;9.50;;
4023;SDS011;2026;51.002;13.668;2023-02-16T23:24:55;15.43;;;10.47;;
4023;SDS011;2026;51.002;13.668;2023-02-16T23:30:13;18.73;;;10.53;;
4023;SDS011;2026;51.002;13.668;2023-02-16T23:35:16;17.50;;;11.00;;
4023;SDS011;2026;51.002;13.668;2023-02-16T23:40:19;15.97;;;9.87;;
4023;SDS011;2026;51.002;13.668;2023-02-16T23:45:24;16.17;;;10.57;;
4023;SDS011;2026;51.002;13.668;2023-02-16T23:50:27;18.30;;;10.47;;
4023;SDS011;2026;51.002;13.668;2023-02-16T23:55:30;17.30;;;10.20;;
